sensor_id;sensor_type;location;lat;lon;timestamp;P1;durP1;ratioP1;P2;durP2;ratioP2
32152;SDS011;18656;50.580;11.392;2023-11-18T00:01:06;3.35;;;2.58;;
32152;SDS011;18656;50.580;11.392;2023-11-18T00:03:35;2.67;;;2.47;;
32152;SDS011;18656;50.580;11.392;2023-11-18T00:06:02;5.05;;;3.00;;
32152;SDS011;18656;50.580;11.392;2023-11-18T00:08:29;4.40;;;2.97;;
32152;SDS011;18656;50.580;11.392;2023-11-18T00:10:57;4.97;;;2.45;;
32152;SDS011;18656;50.580;11.392;2023-11-18T00:13:24;6.50;;;2.72;;
32152;SDS011;18656;50.580;11.392;2023-11-18T00:15:55;4.60;;;2.60;;
32152;SDS011;18656;50.580;11.392;2023-11-18T00:18:24;3.75;;;2.50;;
32152;SDS011;18656;50.580;11.392;2023-11-18T00:20:51;3.60;;;2.78;;
32152;SDS011;18656;50.580;11.392;2023-11-18T00:23:18;2.70;;;2.50;;
32152;SDS011;18656;50.580;11.392;2023-11-18T00:25:47;3.60;;;2.45;;
32152;SDS011;18656;50.580;11.392;2023-11-18T00:28:15;8.05;;;3.15;;
32152;SDS011;18656;50.580;11.392;2023-11-18T00:30:42;6.70;;;4.05;;
32152;SDS011;18656;50.580;11.392;2023-11-18T00:33:09;5.80;;;3.55;;
32152;SDS011;18656;50.580;11.392;2023-11-18T00:35:37;3.03;;;2.72;;
32152;SDS011;18656;50.580;11.392;2023-11-18T00:38:04;3.63;;;2.80;;
32152;SDS011;18656;50.580;11.392;2023-11-18T00:40:31;3.38;;;2.78;;
32152;SDS011;18656;50.580;11.392;2023-11-18T00:42:58;3.70;;;2.83;;
32152;SDS011;18656;50.580;11.392;2023-11-18T00:45:26;6.05;;;3.08;;
32152;SDS011;18656;50.580;11.392;2023-11-18T00:47:55;3.55;;;3.03;;
32152;SDS011;18656;50.580;11.392;2023-11-18T00:50:22;3.08;;;2.78;;
32152;SDS011;18656;50.580;11.392;2023-11-18T00:52:50;2.70;;;2.50;;
32152;SDS011;18656;50.580;11.392;2023-11-18T00:55:17;2.50;;;2.20;;
32152;SDS011;18656;50.580;11.392;2023-11-18T00:57:44;6.20;;;2.22;;
32152;SDS011;18656;50.580;11.392;2023-11-18T01:00:12;1.92;;;1.73;;
32152;SDS011;18656;50.580;11.392;2023-11-18T01:02:41;3.88;;;2.58;;
32152;SDS011;18656;50.580;11.392;2023-11-18T01:05:08;2.08;;;1.70;;
32152;SDS011;18656;50.580;11.392;2023-11-18T01:07:37;2.38;;;1.90;;
32152;SDS011;18656;50.580;11.392;2023-11-18T01:10:05;3.65;;;1.77;;
32152;SDS011;18656;50.580;11.392;2023-11-18T01:12:33;2.22;;;2.00;;
32152;SDS011;18656;50.580;11.392;2023-11-18T01:15:00;3.92;;;1.98;;
32152;SDS011;18656;50.580;11.392;2023-11-18T01:17:29;2.03;;;1.92;;
32152;SDS011;18656;50.580;11.392;2023-11-18T01:19:57;2.70;;;1.92;;
32152;SDS011;18656;50.580;11.392;2023-11-18T01:22:25;3.15;;;2.13;;
32152;SDS011;18656;50.580;11.392;2023-11-18T01:24:52;2.00;;;1.80;;
32152;SDS011;18656;50.580;11.392;2023-11-18T01:27:20;3.20;;;2.00;;
32152;SDS011;18656;50.580;11.392;2023-11-18T01:29:49;2.13;;;1.60;;
32152;SDS011;18656;50.580;11.392;2023-11-18T01:32:16;1.58;;;1.48;;
32152;SDS011;18656;50.580;11.392;2023-11-18T01:34:45;1.70;;;1.45;;
32152;SDS011;18656;50.580;11.392;2023-11-18T01:37:16;6.72;;;1.65;;
32152;SDS011;18656;50.580;11.392;2023-11-18T01:39:44;1.80;;;1.50;;
32152;SDS011;18656;50.580;11.392;2023-11-18T01:42:11;2.08;;;1.90;;
32152;SDS011;18656;50.580;11.392;2023-11-18T01:44:38;2.03;;;1.83;;
32152;SDS011;18656;50.580;11.392;2023-11-18T01:47:06;4.78;;;1.60;;
32152;SDS011;18656;50.580;11.392;2023-11-18T01:49:37;1.52;;;1.27;;
32152;SDS011;18656;50.580;11.392;2023-11-18T01:52:07;1.70;;;1.60;;
32152;SDS011;18656;50.580;11.392;2023-11-18T01:54:35;1.42;;;1.33;;
32152;SDS011;18656;50.580;11.392;2023-11-18T01:57:04;2.15;;;1.55;;
32152;SDS011;18656;50.580;11.392;2023-11-18T01:59:33;3.30;;;1.60;;
32152;SDS011;18656;50.580;11.392;2023-11-18T02:02:00;2.00;;;1.45;;
32152;SDS011;18656;50.580;11.392;2023-11-18T02:04:28;1.83;;;1.52;;
32152;SDS011;18656;50.580;11.392;2023-11-18T02:06:57;1.80;;;1.70;;
32152;SDS011;18656;50.580;11.392;2023-11-18T02:09:24;1.80;;;1.70;;
32152;SDS011;18656;50.580;11.392;2023-11-18T02:14:39;3.17;;;1.77;;
32152;SDS011;18656;50.580;11.392;2023-11-18T02:17:07;2.55;;;1.60;;
32152;SDS011;18656;50.580;11.392;2023-11-18T02:19:37;2.67;;;1.58;;
32152;SDS011;18656;50.580;11.392;2023-11-18T02:22:06;2.33;;;2.03;;
32152;SDS011;18656;50.580;11.392;2023-11-18T02:24:33;1.88;;;1.77;;
32152;SDS011;18656;50.580;11.392;2023-11-18T02:27:04;2.35;;;1.50;;
32152;SDS011;18656;50.580;11.392;2023-11-18T02:29:42;1.67;;;1.58;;
32152;SDS011;18656;50.580;11.392;2023-11-18T02:34:58;3.63;;;1.80;;
32152;SDS011;18656;50.580;11.392;2023-11-18T02:37:30;2.50;;;1.67;;
32152;SDS011;18656;50.580;11.392;2023-11-18T02:40:01;2.88;;;2.00;;
32152;SDS011;18656;50.580;11.392;2023-11-18T02:42:35;1.75;;;1.55;;
32152;SDS011;18656;50.580;11.392;2023-11-18T02:45:04;3.95;;;1.88;;
32152;SDS011;18656;50.580;11.392;2023-11-18T02:47:33;2.38;;;1.65;;
32152;SDS011;18656;50.580;11.392;2023-11-18T02:50:01;4.00;;;1.95;;
32152;SDS011;18656;50.580;11.392;2023-11-18T02:52:32;4.95;;;2.00;;
32152;SDS011;18656;50.580;11.392;2023-11-18T02:55:02;2.25;;;1.60;;
32152;SDS011;18656;50.580;11.392;2023-11-18T02:57:29;12.55;;;2.50;;
32152;SDS011;18656;50.580;11.392;2023-11-18T02:59:57;2.58;;;1.60;;
32152;SDS011;18656;50.580;11.392;2023-11-18T03:02:26;1.80;;;1.45;;
32152;SDS011;18656;50.580;11.392;2023-11-18T03:04:56;3.90;;;1.38;;
32152;SDS011;18656;50.580;11.392;2023-11-18T03:07:23;2.00;;;1.63;;
32152;SDS011;18656;50.580;11.392;2023-11-18T03:09:53;2.72;;;1.50;;
32152;SDS011;18656;50.580;11.392;2023-11-18T03:12:23;3.35;;;1.40;;
32152;SDS011;18656;50.580;11.392;2023-11-18T03:14:54;3.58;;;1.10;;
32152;SDS011;18656;50.580;11.392;2023-11-18T03:17:23;1.00;;;1.00;;
32152;SDS011;18656;50.580;11.392;2023-11-18T03:19:51;1.25;;;1.15;;
32152;SDS011;18656;50.580;11.392;2023-11-18T03:22:18;3.63;;;1.45;;
32152;SDS011;18656;50.580;11.392;2023-11-18T03:24:45;1.50;;;1.40;;
32152;SDS011;18656;50.580;11.392;2023-11-18T03:27:13;2.35;;;1.23;;
32152;SDS011;18656;50.580;11.392;2023-11-18T03:29:40;1.45;;;1.35;;
32152;SDS011;18656;50.580;11.392;2023-11-18T03:32:12;2.15;;;1.55;;
32152;SDS011;18656;50.580;11.392;2023-11-18T03:34:39;1.20;;;1.20;;
32152;SDS011;18656;50.580;11.392;2023-11-18T03:37:06;1.40;;;1.30;;
32152;SDS011;18656;50.580;11.392;2023-11-18T03:39:34;1.35;;;1.23;;
32152;SDS011;18656;50.580;11.392;2023-11-18T03:42:01;1.42;;;1.30;;
32152;SDS011;18656;50.580;11.392;2023-11-18T03:44:28;1.40;;;1.30;;
32152;SDS011;18656;50.580;11.392;2023-11-18T03:46:56;4.97;;;1.67;;
32152;SDS011;18656;50.580;11.392;2023-11-18T03:49:23;4.68;;;1.33;;
32152;SDS011;18656;50.580;11.392;2023-11-18T03:51:50;6.90;;;1.30;;
32152;SDS011;18656;50.580;11.392;2023-11-18T03:54:17;1.67;;;1.30;;
32152;SDS011;18656;50.580;11.392;2023-11-18T03:56:45;1.40;;;1.30;;
32152;SDS011;18656;50.580;11.392;2023-11-18T03:59:12;1.27;;;1.23;;
32152;SDS011;18656;50.580;11.392;2023-11-18T04:01:39;1.25;;;1.15;;
32152;SDS011;18656;50.580;11.392;2023-11-18T04:04:07;1.92;;;1.60;;
32152;SDS011;18656;50.580;11.392;2023-11-18T04:06:34;2.97;;;1.30;;
32152;SDS011;18656;50.580;11.392;2023-11-18T04:09:02;3.53;;;1.52;;
32152;SDS011;18656;50.580;11.392;2023-11-18T04:11:29;1.80;;;1.70;;
32152;SDS011;18656;50.580;11.392;2023-11-18T04:13:56;3.63;;;1.67;;
32152;SDS011;18656;50.580;11.392;2023-11-18T04:16:24;1.85;;;1.73;;
32152;SDS011;18656;50.580;11.392;2023-11-18T04:18:51;7.65;;;1.77;;
32152;SDS011;18656;50.580;11.392;2023-11-18T04:21:18;2.67;;;1.83;;
32152;SDS011;18656;50.580;11.392;2023-11-18T04:23:45;2.03;;;1.67;;
32152;SDS011;18656;50.580;11.392;2023-11-18T04:26:13;2.30;;;1.40;;
32152;SDS011;18656;50.580;11.392;2023-11-18T04:28:40;3.35;;;1.15;;
32152;SDS011;18656;50.580;11.392;2023-11-18T04:31:07;2.03;;;1.92;;
32152;SDS011;18656;50.580;11.392;2023-11-18T04:33:35;1.63;;;1.52;;
32152;SDS011;18656;50.580;11.392;2023-11-18T04:36:02;2.33;;;1.23;;
32152;SDS011;18656;50.580;11.392;2023-11-18T04:38:31;5.28;;;1.20;;
32152;SDS011;18656;50.580;11.392;2023-11-18T04:40:59;2.15;;;1.30;;
32152;SDS011;18656;50.580;11.392;2023-11-18T04:43:26;2.00;;;1.20;;
32152;SDS011;18656;50.580;11.392;2023-11-18T04:46:07;2.50;;;1.35;;
32152;SDS011;18656;50.580;11.392;2023-11-18T04:48:35;5.60;;;1.20;;
32152;SDS011;18656;50.580;11.392;2023-11-18T04:51:07;19.90;;;3.65;;
32152;SDS011;18656;50.580;11.392;2023-11-18T04:53:34;4.32;;;1.20;;
32152;SDS011;18656;50.580;11.392;2023-11-18T04:56:01;1.20;;;1.10;;
32152;SDS011;18656;50.580;11.392;2023-11-18T04:58:29;3.58;;;1.25;;
32152;SDS011;18656;50.580;11.392;2023-11-18T05:00:56;2.33;;;1.65;;
32152;SDS011;18656;50.580;11.392;2023-11-18T05:03:23;1.77;;;1.67;;
32152;SDS011;18656;50.580;11.392;2023-11-18T05:05:51;5.90;;;2.97;;
32152;SDS011;18656;50.580;11.392;2023-11-18T05:08:23;2.90;;;2.70;;
32152;SDS011;18656;50.580;11.392;2023-11-18T05:10:52;3.13;;;2.72;;
32152;SDS011;18656;50.580;11.392;2023-11-18T05:13:20;6.07;;;2.08;;
32152;SDS011;18656;50.580;11.392;2023-11-18T05:15:48;2.60;;;1.77;;
32152;SDS011;18656;50.580;11.392;2023-11-18T05:18:16;2.20;;;1.42;;
32152;SDS011;18656;50.580;11.392;2023-11-18T05:20:44;1.65;;;1.55;;
32152;SDS011;18656;50.580;11.392;2023-11-18T05:23:11;2.40;;;1.50;;
32152;SDS011;18656;50.580;11.392;2023-11-18T05:25:39;5.90;;;3.83;;
32152;SDS011;18656;50.580;11.392;2023-11-18T05:28:06;7.70;;;4.68;;
32152;SDS011;18656;50.580;11.392;2023-11-18T05:30:38;5.25;;;4.68;;
32152;SDS011;18656;50.580;11.392;2023-11-18T05:33:05;8.38;;;4.40;;
32152;SDS011;18656;50.580;11.392;2023-11-18T05:35:33;4.70;;;3.33;;
32152;SDS011;18656;50.580;11.392;2023-11-18T05:38:01;8.85;;;5.53;;
32152;SDS011;18656;50.580;11.392;2023-11-18T05:40:32;13.90;;;6.60;;
32152;SDS011;18656;50.580;11.392;2023-11-18T05:43:02;6.85;;;3.92;;
32152;SDS011;18656;50.580;11.392;2023-11-18T05:45:32;3.80;;;2.90;;
32152;SDS011;18656;50.580;11.392;2023-11-18T05:48:20;2.35;;;2.15;;
32152;SDS011;18656;50.580;11.392;2023-11-18T05:50:47;5.90;;;2.58;;
32152;SDS011;18656;50.580;11.392;2023-11-18T05:53:14;2.38;;;2.17;;
32152;SDS011;18656;50.580;11.392;2023-11-18T05:55:42;3.85;;;1.73;;
32152;SDS011;18656;50.580;11.392;2023-11-18T05:58:09;3.15;;;1.55;;
32152;SDS011;18656;50.580;11.392;2023-11-18T06:00:36;8.40;;;2.03;;
32152;SDS011;18656;50.580;11.392;2023-11-18T06:03:07;4.40;;;1.63;;
32152;SDS011;18656;50.580;11.392;2023-11-18T06:05:34;2.83;;;1.50;;
32152;SDS011;18656;50.580;11.392;2023-11-18T06:08:01;2.15;;;1.50;;
32152;SDS011;18656;50.580;11.392;2023-11-18T06:10:30;4.72;;;2.05;;
32152;SDS011;18656;50.580;11.392;2023-11-18T06:12:58;1.70;;;1.60;;
32152;SDS011;18656;50.580;11.392;2023-11-18T06:15:25;1.67;;;1.58;;
32152;SDS011;18656;50.580;11.392;2023-11-18T06:17:53;2.88;;;2.40;;
32152;SDS011;18656;50.580;11.392;2023-11-18T06:20:24;2.15;;;1.92;;
32152;SDS011;18656;50.580;11.392;2023-11-18T06:22:51;4.68;;;2.05;;
32152;SDS011;18656;50.580;11.392;2023-11-18T06:25:19;3.58;;;2.63;;
32152;SDS011;18656;50.580;11.392;2023-11-18T06:27:46;2.97;;;2.28;;
32152;SDS011;18656;50.580;11.392;2023-11-18T06:30:14;3.45;;;2.10;;
32152;SDS011;18656;50.580;11.392;2023-11-18T06:32:42;2.20;;;2.10;;
32152;SDS011;18656;50.580;11.392;2023-11-18T06:35:09;2.42;;;1.77;;
32152;SDS011;18656;50.580;11.392;2023-11-18T06:37:37;2.63;;;1.90;;
32152;SDS011;18656;50.580;11.392;2023-11-18T06:40:05;2.35;;;2.08;;
32152;SDS011;18656;50.580;11.392;2023-11-18T06:42:42;2.70;;;2.05;;
32152;SDS011;18656;50.580;11.392;2023-11-18T06:45:13;2.45;;;2.25;;
32152;SDS011;18656;50.580;11.392;2023-11-18T06:47:41;2.53;;;1.80;;
32152;SDS011;18656;50.580;11.392;2023-11-18T06:50:10;2.40;;;2.00;;
32152;SDS011;18656;50.580;11.392;2023-11-18T06:52:40;9.52;;;4.03;;
32152;SDS011;18656;50.580;11.392;2023-11-18T06:55:11;5.50;;;3.03;;
32152;SDS011;18656;50.580;11.392;2023-11-18T06:57:39;3.85;;;3.00;;
32152;SDS011;18656;50.580;11.392;2023-11-18T07:00:10;5.10;;;2.60;;
32152;SDS011;18656;50.580;11.392;2023-11-18T07:02:40;3.38;;;2.65;;
32152;SDS011;18656;50.580;11.392;2023-11-18T07:05:07;7.85;;;6.57;;
32152;SDS011;18656;50.580;11.392;2023-11-18T07:07:35;25.08;;;17.00;;
32152;SDS011;18656;50.580;11.392;2023-11-18T07:10:04;4.75;;;3.25;;
32152;SDS011;18656;50.580;11.392;2023-11-18T07:12:32;2.53;;;2.33;;
32152;SDS011;18656;50.580;11.392;2023-11-18T07:15:00;4.28;;;2.65;;
32152;SDS011;18656;50.580;11.392;2023-11-18T07:17:27;3.60;;;2.67;;
32152;SDS011;18656;50.580;11.392;2023-11-18T07:19:55;6.22;;;2.60;;
32152;SDS011;18656;50.580;11.392;2023-11-18T07:22:22;3.50;;;2.78;;
32152;SDS011;18656;50.580;11.392;2023-11-18T07:24:51;2.35;;;2.08;;
32152;SDS011;18656;50.580;11.392;2023-11-18T07:27:18;3.30;;;2.90;;
32152;SDS011;18656;50.580;11.392;2023-11-18T07:29:46;9.95;;;3.60;;
32152;SDS011;18656;50.580;11.392;2023-11-18T07:32:13;4.38;;;2.33;;
32152;SDS011;18656;50.580;11.392;2023-11-18T07:34:41;2.60;;;2.40;;
32152;SDS011;18656;50.580;11.392;2023-11-18T07:37:08;6.90;;;2.97;;
32152;SDS011;18656;50.580;11.392;2023-11-18T07:39:35;4.13;;;2.30;;
32152;SDS011;18656;50.580;11.392;2023-11-18T07:42:14;2.03;;;1.92;;
32152;SDS011;18656;50.580;11.392;2023-11-18T07:44:44;2.65;;;2.10;;
32152;SDS011;18656;50.580;11.392;2023-11-18T07:47:12;3.40;;;2.25;;
32152;SDS011;18656;50.580;11.392;2023-11-18T07:49:39;4.80;;;2.25;;
32152;SDS011;18656;50.580;11.392;2023-11-18T07:52:07;3.92;;;2.83;;
32152;SDS011;18656;50.580;11.392;2023-11-18T07:54:34;3.80;;;3.03;;
32152;SDS011;18656;50.580;11.392;2023-11-18T07:57:01;27.23;;;12.63;;
32152;SDS011;18656;50.580;11.392;2023-11-18T07:59:30;10.95;;;7.03;;
32152;SDS011;18656;50.580;11.392;2023-11-18T08:01:58;11.73;;;6.63;;
32152;SDS011;18656;50.580;11.392;2023-11-18T08:04:30;16.77;;;9.43;;
32152;SDS011;18656;50.580;11.392;2023-11-18T08:06:58;25.45;;;11.80;;
32152;SDS011;18656;50.580;11.392;2023-11-18T08:09:25;45.72;;;19.27;;
32152;SDS011;18656;50.580;11.392;2023-11-18T08:11:52;54.17;;;24.67;;
32152;SDS011;18656;50.580;11.392;2023-11-18T08:14:21;51.22;;;23.80;;
32152;SDS011;18656;50.580;11.392;2023-11-18T08:16:49;45.63;;;19.83;;
32152;SDS011;18656;50.580;11.392;2023-11-18T08:19:17;29.25;;;15.20;;
32152;SDS011;18656;50.580;11.392;2023-11-18T08:21:45;29.98;;;14.68;;
32152;SDS011;18656;50.580;11.392;2023-11-18T08:24:12;29.13;;;16.88;;
32152;SDS011;18656;50.580;11.392;2023-11-18T08:26:39;34.00;;;16.55;;
32152;SDS011;18656;50.580;11.392;2023-11-18T08:29:07;26.52;;;15.63;;
32152;SDS011;18656;50.580;11.392;2023-11-18T08:31:38;31.63;;;17.52;;
32152;SDS011;18656;50.580;11.392;2023-11-18T08:34:06;34.50;;;17.70;;
32152;SDS011;18656;50.580;11.392;2023-11-18T08:36:33;21.85;;;12.15;;
32152;SDS011;18656;50.580;11.392;2023-11-18T08:39:00;18.67;;;9.45;;
32152;SDS011;18656;50.580;11.392;2023-11-18T08:41:28;9.68;;;6.88;;
32152;SDS011;18656;50.580;11.392;2023-11-18T08:43:57;11.40;;;7.88;;
32152;SDS011;18656;50.580;11.392;2023-11-18T08:46:43;8.55;;;5.68;;
32152;SDS011;18656;50.580;11.392;2023-11-18T08:49:11;5.07;;;4.68;;
32152;SDS011;18656;50.580;11.392;2023-11-18T08:51:38;5.68;;;4.60;;
32152;SDS011;18656;50.580;11.392;2023-11-18T08:54:08;3.97;;;3.42;;
32152;SDS011;18656;50.580;11.392;2023-11-18T08:56:48;5.20;;;3.28;;
32152;SDS011;18656;50.580;11.392;2023-11-18T08:59:19;2.80;;;2.47;;
32152;SDS011;18656;50.580;11.392;2023-11-18T09:01:51;2.95;;;2.17;;
32152;SDS011;18656;50.580;11.392;2023-11-18T09:04:22;2.80;;;2.47;;
32152;SDS011;18656;50.580;11.392;2023-11-18T09:06:53;3.28;;;1.73;;
32152;SDS011;18656;50.580;11.392;2023-11-18T09:09:24;2.95;;;1.80;;
32152;SDS011;18656;50.580;11.392;2023-11-18T09:11:55;6.38;;;2.08;;
32152;SDS011;18656;50.580;11.392;2023-11-18T09:14:23;8.68;;;2.17;;
32152;SDS011;18656;50.580;11.392;2023-11-18T09:16:52;2.40;;;1.60;;
32152;SDS011;18656;50.580;11.392;2023-11-18T09:19:25;1.85;;;1.73;;
32152;SDS011;18656;50.580;11.392;2023-11-18T09:21:52;1.67;;;1.58;;
32152;SDS011;18656;50.580;11.392;2023-11-18T09:24:21;1.45;;;1.20;;
32152;SDS011;18656;50.580;11.392;2023-11-18T09:26:51;2.47;;;1.58;;
32152;SDS011;18656;50.580;11.392;2023-11-18T09:29:21;1.48;;;1.38;;
32152;SDS011;18656;50.580;11.392;2023-11-18T09:31:51;1.23;;;1.13;;
32152;SDS011;18656;50.580;11.392;2023-11-18T09:34:19;1.60;;;1.50;;
32152;SDS011;18656;50.580;11.392;2023-11-18T09:36:53;2.38;;;1.30;;
32152;SDS011;18656;50.580;11.392;2023-11-18T09:39:21;1.60;;;1.50;;
32152;SDS011;18656;50.580;11.392;2023-11-18T09:42:05;2.25;;;1.70;;
32152;SDS011;18656;50.580;11.392;2023-11-18T09:44:36;4.50;;;4.07;;
32152;SDS011;18656;50.580;11.392;2023-11-18T09:47:06;8.30;;;5.57;;
32152;SDS011;18656;50.580;11.392;2023-11-18T09:49:44;1.30;;;1.20;;
32152;SDS011;18656;50.580;11.392;2023-11-18T09:52:15;3.85;;;1.20;;
32152;SDS011;18656;50.580;11.392;2023-11-18T09:55:02;9.63;;;6.05;;
32152;SDS011;18656;50.580;11.392;2023-11-18T09:57:35;1.95;;;1.25;;
32152;SDS011;18656;50.580;11.392;2023-11-18T10:00:07;2.05;;;1.10;;
32152;SDS011;18656;50.580;11.392;2023-11-18T10:02:50;1.42;;;1.33;;
32152;SDS011;18656;50.580;11.392;2023-11-18T10:05:19;2.35;;;1.20;;
32152;SDS011;18656;50.580;11.392;2023-11-18T10:07:49;2.35;;;1.30;;
32152;SDS011;18656;50.580;11.392;2023-11-18T10:10:18;1.77;;;1.30;;
32152;SDS011;18656;50.580;11.392;2023-11-18T10:12:47;1.35;;;1.15;;
32152;SDS011;18656;50.580;11.392;2023-11-18T10:15:20;2.28;;;1.10;;
32152;SDS011;18656;50.580;11.392;2023-11-18T10:17:52;1.57;;;0.73;;
32152;SDS011;18656;50.580;11.392;2023-11-18T10:23:08;0.82;;;0.82;;
32152;SDS011;18656;50.580;11.392;2023-11-18T10:25:41;2.17;;;0.75;;
32152;SDS011;18656;50.580;11.392;2023-11-18T10:30:57;1.15;;;1.08;;
32152;SDS011;18656;50.580;11.392;2023-11-18T10:33:25;2.28;;;1.10;;
32152;SDS011;18656;50.580;11.392;2023-11-18T10:35:57;4.53;;;1.10;;
32152;SDS011;18656;50.580;11.392;2023-11-18T10:38:25;0.82;;;0.82;;
32152;SDS011;18656;50.580;11.392;2023-11-18T10:40:52;0.90;;;0.90;;
32152;SDS011;18656;50.580;11.392;2023-11-18T10:43:21;1.30;;;1.10;;
32152;SDS011;18656;50.580;11.392;2023-11-18T10:48:22;1.27;;;1.15;;
32152;SDS011;18656;50.580;11.392;2023-11-18T10:50:50;0.75;;;0.55;;
32152;SDS011;18656;50.580;11.392;2023-11-18T10:53:18;0.60;;;0.45;;
32152;SDS011;18656;50.580;11.392;2023-11-18T10:55:46;4.10;;;1.25;;
32152;SDS011;18656;50.580;11.392;2023-11-18T10:58:13;1.67;;;0.95;;
32152;SDS011;18656;50.580;11.392;2023-11-18T11:00:47;1.30;;;0.70;;
32152;SDS011;18656;50.580;11.392;2023-11-18T11:03:15;0.75;;;0.70;;
32152;SDS011;18656;50.580;11.392;2023-11-18T11:05:44;2.88;;;1.20;;
32152;SDS011;18656;50.580;11.392;2023-11-18T11:08:13;2.40;;;1.08;;
32152;SDS011;18656;50.580;11.392;2023-11-18T11:10:54;5.13;;;0.60;;
32152;SDS011;18656;50.580;11.392;2023-11-18T11:13:25;0.50;;;0.50;;
32152;SDS011;18656;50.580;11.392;2023-11-18T11:15:53;0.68;;;0.68;;
32152;SDS011;18656;50.580;11.392;2023-11-18T11:18:23;10.40;;;1.75;;
32152;SDS011;18656;50.580;11.392;2023-11-18T11:23:30;3.05;;;1.40;;
32152;SDS011;18656;50.580;11.392;2023-11-18T11:26:21;9.45;;;1.10;;
32152;SDS011;18656;50.580;11.392;2023-11-18T11:31:41;1.30;;;1.20;;
32152;SDS011;18656;50.580;11.392;2023-11-18T11:34:20;1.17;;;0.40;;
32152;SDS011;18656;50.580;11.392;2023-11-18T11:36:50;0.50;;;0.50;;
32152;SDS011;18656;50.580;11.392;2023-11-18T11:39:19;3.22;;;0.95;;
32152;SDS011;18656;50.580;11.392;2023-11-18T11:41:56;0.30;;;0.30;;
32152;SDS011;18656;50.580;11.392;2023-11-18T11:44:25;1.40;;;0.60;;
32152;SDS011;18656;50.580;11.392;2023-11-18T11:46:57;0.75;;;0.70;;
32152;SDS011;18656;50.580;11.392;2023-11-18T11:49:27;1.10;;;1.00;;
32152;SDS011;18656;50.580;11.392;2023-11-18T11:52:01;1.90;;;1.47;;
32152;SDS011;18656;50.580;11.392;2023-11-18T11:54:52;1.67;;;0.90;;
32152;SDS011;18656;50.580;11.392;2023-11-18T11:57:22;5.22;;;0.98;;
32152;SDS011;18656;50.580;11.392;2023-11-18T11:59:57;1.30;;;1.10;;
32152;SDS011;18656;50.580;11.392;2023-11-18T12:02:27;0.70;;;0.70;;
32152;SDS011;18656;50.580;11.392;2023-11-18T12:04:56;0.55;;;0.55;;
32152;SDS011;18656;50.580;11.392;2023-11-18T12:07:32;0.50;;;0.50;;
32152;SDS011;18656;50.580;11.392;2023-11-18T12:10:07;1.00;;;0.47;;
32152;SDS011;18656;50.580;11.392;2023-11-18T12:12:39;1.63;;;0.50;;
32152;SDS011;18656;50.580;11.392;2023-11-18T12:15:08;0.57;;;0.57;;
32152;SDS011;18656;50.580;11.392;2023-11-18T12:23:08;0.50;;;0.50;;
32152;SDS011;18656;50.580;11.392;2023-11-18T12:25:41;3.13;;;1.95;;
32152;SDS011;18656;50.580;11.392;2023-11-18T12:28:09;2.10;;;1.33;;
32152;SDS011;18656;50.580;11.392;2023-11-18T12:30:40;1.15;;;1.05;;
32152;SDS011;18656;50.580;11.392;2023-11-18T12:33:19;1.70;;;1.27;;
32152;SDS011;18656;50.580;11.392;2023-11-18T12:41:06;1.17;;;1.08;;
32152;SDS011;18656;50.580;11.392;2023-11-18T12:48:57;2.33;;;1.30;;
32152;SDS011;18656;50.580;11.392;2023-11-18T12:51:27;3.05;;;1.30;;
32152;SDS011;18656;50.580;11.392;2023-11-18T12:53:57;2.03;;;1.33;;
32152;SDS011;18656;50.580;11.392;2023-11-18T12:56:25;2.55;;;1.20;;
32152;SDS011;18656;50.580;11.392;2023-11-18T12:58:55;2.20;;;1.80;;
32152;SDS011;18656;50.580;11.392;2023-11-18T13:01:22;4.65;;;2.15;;
32152;SDS011;18656;50.580;11.392;2023-11-18T13:03:50;2.22;;;1.98;;
32152;SDS011;18656;50.580;11.392;2023-11-18T13:06:20;4.85;;;2.40;;
32152;SDS011;18656;50.580;11.392;2023-11-18T13:08:51;5.93;;;2.70;;
32152;SDS011;18656;50.580;11.392;2023-11-18T13:11:21;2.50;;;2.30;;
32152;SDS011;18656;50.580;11.392;2023-11-18T13:13:52;5.35;;;3.22;;
32152;SDS011;18656;50.580;11.392;2023-11-18T13:16:20;5.25;;;2.90;;
32152;SDS011;18656;50.580;11.392;2023-11-18T13:18:48;3.30;;;2.95;;
32152;SDS011;18656;50.580;11.392;2023-11-18T13:21:16;9.48;;;4.13;;
32152;SDS011;18656;50.580;11.392;2023-11-18T13:23:47;3.10;;;2.80;;
32152;SDS011;18656;50.580;11.392;2023-11-18T13:26:14;4.38;;;2.90;;
32152;SDS011;18656;50.580;11.392;2023-11-18T13:28:42;5.03;;;3.00;;
32152;SDS011;18656;50.580;11.392;2023-11-18T13:31:10;3.50;;;3.25;;
32152;SDS011;18656;50.580;11.392;2023-11-18T13:33:38;3.63;;;3.42;;
32152;SDS011;18656;50.580;11.392;2023-11-18T13:36:06;3.10;;;2.53;;
32152;SDS011;18656;50.580;11.392;2023-11-18T13:38:36;3.75;;;3.05;;
32152;SDS011;18656;50.580;11.392;2023-11-18T13:41:04;3.58;;;3.28;;
32152;SDS011;18656;50.580;11.392;2023-11-18T13:43:43;3.50;;;3.20;;
32152;SDS011;18656;50.580;11.392;2023-11-18T13:46:17;4.60;;;3.50;;
32152;SDS011;18656;50.580;11.392;2023-11-18T13:48:47;3.63;;;3.33;;
32152;SDS011;18656;50.580;11.392;2023-11-18T13:51:18;4.10;;;3.50;;
32152;SDS011;18656;50.580;11.392;2023-11-18T13:53:47;5.63;;;3.80;;
32152;SDS011;18656;50.580;11.392;2023-11-18T13:56:15;8.68;;;4.38;;
32152;SDS011;18656;50.580;11.392;2023-11-18T13:58:42;5.80;;;4.53;;
32152;SDS011;18656;50.580;11.392;2023-11-18T14:01:12;5.80;;;5.28;;
32152;SDS011;18656;50.580;11.392;2023-11-18T14:03:39;5.60;;;3.55;;
32152;SDS011;18656;50.580;11.392;2023-11-18T14:06:09;6.15;;;3.65;;
32152;SDS011;18656;50.580;11.392;2023-11-18T14:08:37;4.65;;;3.50;;
32152;SDS011;18656;50.580;11.392;2023-11-18T14:11:08;4.25;;;3.85;;
32152;SDS011;18656;50.580;11.392;2023-11-18T14:13:43;4.35;;;4.00;;
32152;SDS011;18656;50.580;11.392;2023-11-18T14:16:10;4.38;;;3.70;;
32152;SDS011;18656;50.580;11.392;2023-11-18T14:18:39;4.25;;;3.67;;
32152;SDS011;18656;50.580;11.392;2023-11-18T14:21:08;4.10;;;3.72;;
32152;SDS011;18656;50.580;11.392;2023-11-18T14:23:36;3.95;;;3.65;;
32152;SDS011;18656;50.580;11.392;2023-11-18T14:26:04;4.30;;;3.97;;
32152;SDS011;18656;50.580;11.392;2023-11-18T14:28:33;3.72;;;3.50;;
32152;SDS011;18656;50.580;11.392;2023-11-18T14:31:01;5.70;;;5.10;;
32152;SDS011;18656;50.580;11.392;2023-11-18T14:33:34;5.55;;;4.45;;
32152;SDS011;18656;50.580;11.392;2023-11-18T14:36:01;5.20;;;4.75;;
32152;SDS011;18656;50.580;11.392;2023-11-18T14:38:32;5.05;;;4.65;;
32152;SDS011;18656;50.580;11.392;2023-11-18T14:41:01;5.88;;;4.75;;
32152;SDS011;18656;50.580;11.392;2023-11-18T14:43:29;6.45;;;5.80;;
32152;SDS011;18656;50.580;11.392;2023-11-18T14:45:56;5.10;;;4.60;;
32152;SDS011;18656;50.580;11.392;2023-11-18T14:48:24;5.63;;;4.90;;
32152;SDS011;18656;50.580;11.392;2023-11-18T14:50:51;5.25;;;4.75;;
32152;SDS011;18656;50.580;11.392;2023-11-18T14:53:18;5.32;;;4.82;;
32152;SDS011;18656;50.580;11.392;2023-11-18T14:55:46;5.22;;;4.57;;
32152;SDS011;18656;50.580;11.392;2023-11-18T14:58:14;4.85;;;4.38;;
32152;SDS011;18656;50.580;11.392;2023-11-18T15:00:41;4.95;;;4.40;;
32152;SDS011;18656;50.580;11.392;2023-11-18T15:03:09;4.45;;;3.60;;
32152;SDS011;18656;50.580;11.392;2023-11-18T15:05:37;4.57;;;4.18;;
32152;SDS011;18656;50.580;11.392;2023-11-18T15:08:04;4.40;;;4.00;;
32152;SDS011;18656;50.580;11.392;2023-11-18T15:10:36;6.20;;;5.60;;
32152;SDS011;18656;50.580;11.392;2023-11-18T15:13:03;4.85;;;4.35;;
32152;SDS011;18656;50.580;11.392;2023-11-18T15:15:31;4.93;;;4.43;;
32152;SDS011;18656;50.580;11.392;2023-11-18T15:18:02;4.93;;;4.53;;
32152;SDS011;18656;50.580;11.392;2023-11-18T15:20:30;4.97;;;4.57;;